VE89 weather

Darbhanga Airport
Bihar, India

Public forecast

Using degrees Celsius for public forecast. Weather courtesy of forecast.io.

METAR (pilot weather report)

Closest report is Lok Nayak Jayaprakash Airport, 57.5 nm (106.5 km) SW. Retrieved 2018/12/16 04:00 UTC (5 minutes ago):

VEPT 160400Z 28004KT 2000 HZ NSC 18/07 Q1022 NOSIG

TAF (pilot weather forecast)

Forecast is more than 12 hours old.

Closest forecast is Lok Nayak Jayaprakash Airport, 57.5 nm (106.5 km) SW. Retrieved 2018/12/15 00:39 UTC (1 day ago):

TAF VEPT 152300Z 1600/1706 00000KT 2000 HZ NSC BECMG 1604/1606 34003KT 3000 HZ FEW100 BECMG 1608/1610 36003KT 5000 HZ BECMG 1615/1617 00000KT 2500 HZ NSC BECMG 1623/1701 1200 MIFG FEW020 SCT100 BECMG 1704/1706 VRB03KT 2500 HZ SCT020 BKN100